ADDS METAR Data INFO
IDs: Format: Raw Decoded Include TAF

Data at: 0213 UTC 18 Jan 2018

KGYL 180059Z AUTO 23006KT 10SM CLR M03/M08 A3009 RMK AO2
KGYL 172359Z AUTO 22007G14KT 190V250 10SM CLR M02/M08 A3009 RMK AO2
KGYL 172259Z AUTO 22007G14KT 10SM CLR M02/M08 A3009 RMK AO2
KGYL 172159Z AUTO 21009G14KT 10SM CLR M01/M07 A3010 RMK AO2
KGYL 172059Z AUTO 22006KT 10SM CLR M01/M08 A3013 RMK AO2
KGYL 171959Z AUTO 21012KT 10SM CLR M03/M09 A3013 RMK AO2
KGYL 171859Z AUTO 20010G14KT 10SM CLR M05/M10 A3015 RMK AO2
KGYL 171759Z AUTO 20010KT 10SM CLR M06/M12 A3020 RMK AO2
KGYL 171659Z AUTO 21011G15KT 10SM CLR M09/M14 A3024 RMK AO2
KGYL 171559Z AUTO 21008KT 10SM CLR M10/M15 A3027 RMK AO2
KGYL 171459Z AUTO 21007KT 10SM CLR M12/M16 A3027 RMK AO2
KGYL 171359Z AUTO 20008KT 10SM CLR M15/M18 A3029 RMK AO2
KGYL 171259Z AUTO 18007KT 10SM CLR M16/M19 A3033 RMK AO2
KGYL 171159Z AUTO 18005KT 10SM CLR M16/M19 A3036 RMK AO2
KGYL 171059Z AUTO 19007KT 10SM CLR M16/M20 A3038 RMK AO2
KGYL 170959Z AUTO 20007KT 10SM CLR M17/M20 A3039 RMK AO2
KGYL 170859Z AUTO 21004KT 10SM CLR M17/M20 A3043 RMK AO2
KGYL 170759Z AUTO 20005KT 10SM CLR M17/M20 A3045 RMK AO2
KGYL 170659Z AUTO 21004KT 10SM CLR M18/M20 A3046 RMK AO2
KGYL 170559Z AUTO 21004KT 10SM CLR M19/M21 A3049 RMK AO2
KGYL 170459Z AUTO 20005KT 10SM CLR M20/M21 A3052 RMK AO2
KGYL 170359Z AUTO 21003KT 10SM CLR M19/M21 A3053 RMK AO2
KGYL 170259Z AUTO 23003KT 10SM CLR M18/M20 A3055 RMK AO2
KGYL 170159Z AUTO 22003KT 10SM CLR M18/M20 A3057 RMK AO2
KGYL 170059Z AUTO 23004KT 10SM CLR M18/M20 A3058 RMK AO2
KGYL 162359Z AUTO 25003KT 10SM CLR M17/M20 A3061 RMK AO2
KGYL 162259Z AUTO 00000KT 10SM CLR M16/M19 A3062 RMK AO2
KGYL 162159Z AUTO 27007KT 10SM CLR M15/M19 A3062 RMK AO2
KGYL 162059Z AUTO 27006KT 7SM CLR M15/M19 A3063 RMK AO2
KGYL 161959Z AUTO 28008KT 10SM CLR M16/M20 A3065 RMK AO2
KGYL 161859Z AUTO 27008KT 7SM CLR M17/M21 A3065 RMK AO2
KGYL 161759Z AUTO 27005KT 7SM OVC009 M18/M22 A3068 RMK AO2
KGYL 161659Z AUTO 28005KT 5SM HZ BKN009 M19/M22 A3070 RMK AO2
KGYL 161559Z AUTO 30006KT 7SM OVC009 M20/M23 A3070 RMK AO2
KGYL 161459Z AUTO 31009KT 7SM OVC009 M19/M22 A3070 RMK AO2